sensor_id;sensor_type;location;lat;lon;timestamp;P1;durP1;ratioP1;P2;durP2;ratioP2
37477;SDS011;23334;54.316;10.182;2024-01-16T00:00:56;3.73;;;3.43;;
37477;SDS011;23334;54.316;10.182;2024-01-16T00:03:23;4.00;;;3.17;;
37477;SDS011;23334;54.316;10.182;2024-01-16T00:05:49;3.97;;;3.67;;
37477;SDS011;23334;54.316;10.182;2024-01-16T00:08:15;8.33;;;4.10;;
37477;SDS011;23334;54.316;10.182;2024-01-16T00:10:41;3.80;;;3.50;;
37477;SDS011;23334;54.316;10.182;2024-01-16T00:13:07;4.30;;;3.30;;
37477;SDS011;23334;54.316;10.182;2024-01-16T00:15:33;5.90;;;3.40;;
37477;SDS011;23334;54.316;10.182;2024-01-16T00:17:58;3.57;;;3.27;;
37477;SDS011;23334;54.316;10.182;2024-01-16T00:20:24;3.47;;;3.27;;
37477;SDS011;23334;54.316;10.182;2024-01-16T00:22:50;4.07;;;3.40;;
37477;SDS011;23334;54.316;10.182;2024-01-16T00:25:17;5.73;;;2.83;;
37477;SDS011;23334;54.316;10.182;2024-01-16T00:27:45;3.80;;;2.80;;
37477;SDS011;23334;54.316;10.182;2024-01-16T00:30:11;3.10;;;2.73;;
37477;SDS011;23334;54.316;10.182;2024-01-16T00:32:39;2.63;;;2.43;;
37477;SDS011;23334;54.316;10.182;2024-01-16T00:35:05;3.57;;;3.17;;
37477;SDS011;23334;54.316;10.182;2024-01-16T00:37:31;3.37;;;2.93;;
37477;SDS011;23334;54.316;10.182;2024-01-16T00:39:56;6.73;;;3.70;;
37477;SDS011;23334;54.316;10.182;2024-01-16T00:42:22;5.20;;;3.57;;
37477;SDS011;23334;54.316;10.182;2024-01-16T00:44:48;8.10;;;3.00;;
37477;SDS011;23334;54.316;10.182;2024-01-16T00:47:14;3.67;;;3.37;;
37477;SDS011;23334;54.316;10.182;2024-01-16T00:49:40;3.10;;;2.90;;
37477;SDS011;23334;54.316;10.182;2024-01-16T00:52:07;3.33;;;3.10;;
37477;SDS011;23334;54.316;10.182;2024-01-16T00:54:33;6.70;;;3.63;;
37477;SDS011;23334;54.316;10.182;2024-01-16T00:56:59;6.37;;;3.60;;
37477;SDS011;23334;54.316;10.182;2024-01-16T00:59:25;4.47;;;3.57;;
37477;SDS011;23334;54.316;10.182;2024-01-16T01:01:51;5.07;;;4.07;;
37477;SDS011;23334;54.316;10.182;2024-01-16T01:04:17;3.80;;;3.50;;
37477;SDS011;23334;54.316;10.182;2024-01-16T01:06:43;4.87;;;3.93;;
37477;SDS011;23334;54.316;10.182;2024-01-16T01:09:09;8.13;;;4.70;;
37477;SDS011;23334;54.316;10.182;2024-01-16T01:11:38;7.87;;;4.20;;
37477;SDS011;23334;54.316;10.182;2024-01-16T01:14:04;5.03;;;4.50;;
37477;SDS011;23334;54.316;10.182;2024-01-16T01:16:31;4.10;;;3.80;;
37477;SDS011;23334;54.316;10.182;2024-01-16T01:18:57;5.77;;;4.53;;
37477;SDS011;23334;54.316;10.182;2024-01-16T01:21:23;5.40;;;4.30;;
37477;SDS011;23334;54.316;10.182;2024-01-16T01:23:48;9.00;;;5.00;;
37477;SDS011;23334;54.316;10.182;2024-01-16T01:26:14;6.47;;;4.40;;
37477;SDS011;23334;54.316;10.182;2024-01-16T01:28:42;6.97;;;5.50;;
37477;SDS011;23334;54.316;10.182;2024-01-16T01:31:09;6.93;;;5.47;;
37477;SDS011;23334;54.316;10.182;2024-01-16T01:33:35;4.83;;;4.40;;
37477;SDS011;23334;54.316;10.182;2024-01-16T01:36:00;6.40;;;4.27;;
37477;SDS011;23334;54.316;10.182;2024-01-16T01:38:26;6.40;;;4.60;;
37477;SDS011;23334;54.316;10.182;2024-01-16T01:40:52;5.70;;;5.07;;
37477;SDS011;23334;54.316;10.182;2024-01-16T01:43:22;11.93;;;5.73;;
37477;SDS011;23334;54.316;10.182;2024-01-16T01:48:34;7.63;;;6.63;;
37477;SDS011;23334;54.316;10.182;2024-01-16T01:51:00;9.50;;;5.40;;
37477;SDS011;23334;54.316;10.182;2024-01-16T01:53:28;5.23;;;4.43;;
37477;SDS011;23334;54.316;10.182;2024-01-16T01:55:54;7.07;;;4.67;;
37477;SDS011;23334;54.316;10.182;2024-01-16T01:58:20;5.30;;;4.80;;
37477;SDS011;23334;54.316;10.182;2024-01-16T02:00:46;5.10;;;4.60;;
37477;SDS011;23334;54.316;10.182;2024-01-16T02:03:12;9.60;;;4.83;;
37477;SDS011;23334;54.316;10.182;2024-01-16T02:05:39;9.33;;;5.17;;
37477;SDS011;23334;54.316;10.182;2024-01-16T02:08:05;5.77;;;4.40;;
37477;SDS011;23334;54.316;10.182;2024-01-16T02:10:31;8.90;;;4.60;;
37477;SDS011;23334;54.316;10.182;2024-01-16T02:12:57;8.53;;;5.07;;
37477;SDS011;23334;54.316;10.182;2024-01-16T02:15:24;5.93;;;4.60;;
37477;SDS011;23334;54.316;10.182;2024-01-16T02:17:50;10.00;;;5.33;;
37477;SDS011;23334;54.316;10.182;2024-01-16T02:20:16;5.30;;;4.37;;
37477;SDS011;23334;54.316;10.182;2024-01-16T02:22:44;7.53;;;4.77;;
37477;SDS011;23334;54.316;10.182;2024-01-16T02:25:11;8.60;;;4.87;;
37477;SDS011;23334;54.316;10.182;2024-01-16T02:27:37;5.40;;;4.73;;
37477;SDS011;23334;54.316;10.182;2024-01-16T02:30:04;5.80;;;4.67;;
37477;SDS011;23334;54.316;10.182;2024-01-16T02:32:31;6.53;;;5.10;;
37477;SDS011;23334;54.316;10.182;2024-01-16T02:34:57;4.73;;;3.87;;
37477;SDS011;23334;54.316;10.182;2024-01-16T02:37:23;6.93;;;4.70;;
37477;SDS011;23334;54.316;10.182;2024-01-16T02:39:49;4.77;;;4.27;;
37477;SDS011;23334;54.316;10.182;2024-01-16T02:42:15;8.00;;;5.43;;
37477;SDS011;23334;54.316;10.182;2024-01-16T02:44:41;6.40;;;4.90;;
37477;SDS011;23334;54.316;10.182;2024-01-16T02:47:07;6.33;;;4.70;;
37477;SDS011;23334;54.316;10.182;2024-01-16T02:49:33;6.10;;;5.23;;
37477;SDS011;23334;54.316;10.182;2024-01-16T02:52:01;8.03;;;5.30;;
37477;SDS011;23334;54.316;10.182;2024-01-16T02:54:28;8.30;;;5.57;;
37477;SDS011;23334;54.316;10.182;2024-01-16T02:56:54;6.20;;;5.20;;
37477;SDS011;23334;54.316;10.182;2024-01-16T02:59:20;8.60;;;6.13;;
37477;SDS011;23334;54.316;10.182;2024-01-16T03:01:46;10.13;;;5.40;;
37477;SDS011;23334;54.316;10.182;2024-01-16T03:04:12;9.10;;;5.40;;
37477;SDS011;23334;54.316;10.182;2024-01-16T03:06:37;14.57;;;5.43;;
37477;SDS011;23334;54.316;10.182;2024-01-16T03:09:03;5.90;;;5.30;;
37477;SDS011;23334;54.316;10.182;2024-01-16T03:11:29;9.03;;;5.60;;
37477;SDS011;23334;54.316;10.182;2024-01-16T03:13:57;6.97;;;5.50;;
37477;SDS011;23334;54.316;10.182;2024-01-16T03:16:24;7.43;;;4.90;;
37477;SDS011;23334;54.316;10.182;2024-01-16T03:18:50;7.13;;;5.50;;
37477;SDS011;23334;54.316;10.182;2024-01-16T03:21:16;9.93;;;4.70;;
37477;SDS011;23334;54.316;10.182;2024-01-16T03:23:42;10.73;;;6.20;;
37477;SDS011;23334;54.316;10.182;2024-01-16T03:26:13;9.43;;;5.77;;
37477;SDS011;23334;54.316;10.182;2024-01-16T03:28:39;6.87;;;5.37;;
37477;SDS011;23334;54.316;10.182;2024-01-16T03:31:05;7.07;;;5.03;;
37477;SDS011;23334;54.316;10.182;2024-01-16T03:33:31;7.20;;;5.53;;
37477;SDS011;23334;54.316;10.182;2024-01-16T03:35:59;11.50;;;5.27;;
37477;SDS011;23334;54.316;10.182;2024-01-16T03:38:25;6.27;;;5.33;;
37477;SDS011;23334;54.316;10.182;2024-01-16T03:40:51;7.10;;;5.50;;
37477;SDS011;23334;54.316;10.182;2024-01-16T03:43:17;5.37;;;4.83;;
37477;SDS011;23334;54.316;10.182;2024-01-16T03:45:43;8.47;;;5.70;;
37477;SDS011;23334;54.316;10.182;2024-01-16T03:48:11;15.10;;;5.67;;
37477;SDS011;23334;54.316;10.182;2024-01-16T03:50:37;6.73;;;5.27;;
37477;SDS011;23334;54.316;10.182;2024-01-16T03:53:03;6.40;;;5.23;;
37477;SDS011;23334;54.316;10.182;2024-01-16T03:55:29;7.60;;;4.90;;
37477;SDS011;23334;54.316;10.182;2024-01-16T03:57:56;7.33;;;5.07;;
37477;SDS011;23334;54.316;10.182;2024-01-16T04:00:22;4.47;;;3.90;;
37477;SDS011;23334;54.316;10.182;2024-01-16T04:02:49;6.10;;;5.30;;
37477;SDS011;23334;54.316;10.182;2024-01-16T04:05:15;5.33;;;4.83;;
37477;SDS011;23334;54.316;10.182;2024-01-16T04:07:41;5.30;;;4.80;;
37477;SDS011;23334;54.316;10.182;2024-01-16T04:10:07;6.40;;;4.40;;
37477;SDS011;23334;54.316;10.182;2024-01-16T04:12:33;4.83;;;4.13;;
37477;SDS011;23334;54.316;10.182;2024-01-16T04:14:59;6.73;;;5.20;;
37477;SDS011;23334;54.316;10.182;2024-01-16T04:17:25;8.60;;;5.50;;
37477;SDS011;23334;54.316;10.182;2024-01-16T04:19:50;6.03;;;4.80;;
37477;SDS011;23334;54.316;10.182;2024-01-16T04:22:16;8.30;;;4.03;;
37477;SDS011;23334;54.316;10.182;2024-01-16T04:24:42;5.73;;;4.03;;
37477;SDS011;23334;54.316;10.182;2024-01-16T04:27:10;5.83;;;4.47;;
37477;SDS011;23334;54.316;10.182;2024-01-16T04:29:36;6.10;;;5.30;;
37477;SDS011;23334;54.316;10.182;2024-01-16T04:32:02;7.00;;;5.13;;
37477;SDS011;23334;54.316;10.182;2024-01-16T04:34:29;7.47;;;5.40;;
37477;SDS011;23334;54.316;10.182;2024-01-16T04:36:55;6.33;;;4.80;;
37477;SDS011;23334;54.316;10.182;2024-01-16T04:39:21;6.90;;;4.53;;
37477;SDS011;23334;54.316;10.182;2024-01-16T04:41:50;6.40;;;5.10;;
37477;SDS011;23334;54.316;10.182;2024-01-16T04:44:15;8.03;;;5.60;;
37477;SDS011;23334;54.316;10.182;2024-01-16T04:46:41;6.43;;;4.67;;
37477;SDS011;23334;54.316;10.182;2024-01-16T04:49:08;7.63;;;5.40;;
37477;SDS011;23334;54.316;10.182;2024-01-16T04:51:34;10.70;;;5.50;;
37477;SDS011;23334;54.316;10.182;2024-01-16T04:54:00;9.17;;;4.93;;
37477;SDS011;23334;54.316;10.182;2024-01-16T04:56:26;8.47;;;5.43;;
37477;SDS011;23334;54.316;10.182;2024-01-16T04:58:51;8.20;;;5.77;;
37477;SDS011;23334;54.316;10.182;2024-01-16T05:01:17;6.70;;;5.17;;
37477;SDS011;23334;54.316;10.182;2024-01-16T05:03:43;8.97;;;5.80;;
37477;SDS011;23334;54.316;10.182;2024-01-16T05:06:13;10.23;;;6.53;;
37477;SDS011;23334;54.316;10.182;2024-01-16T05:08:42;10.10;;;6.60;;
37477;SDS011;23334;54.316;10.182;2024-01-16T05:11:08;10.30;;;6.73;;
37477;SDS011;23334;54.316;10.182;2024-01-16T05:13:34;9.80;;;6.77;;
37477;SDS011;23334;54.316;10.182;2024-01-16T05:16:01;13.27;;;6.80;;
37477;SDS011;23334;54.316;10.182;2024-01-16T05:18:29;12.20;;;6.90;;
37477;SDS011;23334;54.316;10.182;2024-01-16T05:20:55;10.57;;;7.30;;
37477;SDS011;23334;54.316;10.182;2024-01-16T05:23:21;12.20;;;7.43;;
37477;SDS011;23334;54.316;10.182;2024-01-16T05:25:47;12.70;;;6.63;;
37477;SDS011;23334;54.316;10.182;2024-01-16T05:28:14;11.63;;;6.87;;
37477;SDS011;23334;54.316;10.182;2024-01-16T05:30:40;16.03;;;7.40;;
37477;SDS011;23334;54.316;10.182;2024-01-16T05:33:06;12.43;;;6.90;;
37477;SDS011;23334;54.316;10.182;2024-01-16T05:35:33;9.97;;;6.87;;
37477;SDS011;23334;54.316;10.182;2024-01-16T05:37:59;10.20;;;6.50;;
37477;SDS011;23334;54.316;10.182;2024-01-16T05:40:26;10.43;;;6.57;;
37477;SDS011;23334;54.316;10.182;2024-01-16T05:42:52;9.43;;;6.60;;
37477;SDS011;23334;54.316;10.182;2024-01-16T05:45:18;11.47;;;6.67;;
37477;SDS011;23334;54.316;10.182;2024-01-16T05:47:45;12.33;;;7.20;;
37477;SDS011;23334;54.316;10.182;2024-01-16T05:50:13;10.47;;;6.80;;
37477;SDS011;23334;54.316;10.182;2024-01-16T05:52:42;12.80;;;7.70;;
37477;SDS011;23334;54.316;10.182;2024-01-16T05:55:08;17.23;;;7.70;;
37477;SDS011;23334;54.316;10.182;2024-01-16T05:57:34;11.80;;;6.77;;
37477;SDS011;23334;54.316;10.182;2024-01-16T06:00:00;14.83;;;7.30;;
37477;SDS011;23334;54.316;10.182;2024-01-16T06:02:28;14.03;;;7.60;;
37477;SDS011;23334;54.316;10.182;2024-01-16T06:04:55;11.43;;;7.23;;
37477;SDS011;23334;54.316;10.182;2024-01-16T06:07:21;10.60;;;7.23;;
37477;SDS011;23334;54.316;10.182;2024-01-16T06:09:47;16.87;;;8.30;;
37477;SDS011;23334;54.316;10.182;2024-01-16T06:12:13;10.68;;;6.78;;
37477;SDS011;23334;54.316;10.182;2024-01-16T06:14:39;10.90;;;7.07;;
37477;SDS011;23334;54.316;10.182;2024-01-16T06:17:05;13.90;;;8.10;;
37477;SDS011;23334;54.316;10.182;2024-01-16T06:19:31;17.03;;;8.97;;
37477;SDS011;23334;54.316;10.182;2024-01-16T06:21:58;11.87;;;8.17;;
37477;SDS011;23334;54.316;10.182;2024-01-16T06:24:24;10.20;;;7.50;;
37477;SDS011;23334;54.316;10.182;2024-01-16T06:26:50;12.73;;;7.93;;
37477;SDS011;23334;54.316;10.182;2024-01-16T06:29:16;14.07;;;7.93;;
37477;SDS011;23334;54.316;10.182;2024-01-16T06:31:42;13.32;;;8.32;;
37477;SDS011;23334;54.316;10.182;2024-01-16T06:34:08;11.63;;;7.17;;
37477;SDS011;23334;54.316;10.182;2024-01-16T06:36:34;11.90;;;7.77;;
37477;SDS011;23334;54.316;10.182;2024-01-16T06:39:00;12.00;;;6.60;;
37477;SDS011;23334;54.316;10.182;2024-01-16T06:41:26;14.70;;;8.43;;
37477;SDS011;23334;54.316;10.182;2024-01-16T06:43:52;13.47;;;8.07;;
37477;SDS011;23334;54.316;10.182;2024-01-16T06:46:18;15.07;;;7.63;;
37477;SDS011;23334;54.316;10.182;2024-01-16T06:48:44;10.50;;;7.20;;
37477;SDS011;23334;54.316;10.182;2024-01-16T06:51:10;11.93;;;7.57;;
37477;SDS011;23334;54.316;10.182;2024-01-16T06:53:39;9.93;;;6.93;;
37477;SDS011;23334;54.316;10.182;2024-01-16T06:56:06;13.80;;;7.50;;
37477;SDS011;23334;54.316;10.182;2024-01-16T06:58:33;9.67;;;6.80;;
37477;SDS011;23334;54.316;10.182;2024-01-16T07:01:01;10.63;;;7.43;;
37477;SDS011;23334;54.316;10.182;2024-01-16T07:03:27;11.63;;;6.60;;
37477;SDS011;23334;54.316;10.182;2024-01-16T07:05:53;12.77;;;8.30;;
37477;SDS011;23334;54.316;10.182;2024-01-16T07:08:19;12.70;;;6.53;;
37477;SDS011;23334;54.316;10.182;2024-01-16T07:10:45;14.03;;;7.50;;
37477;SDS011;23334;54.316;10.182;2024-01-16T07:13:11;11.67;;;7.33;;
37477;SDS011;23334;54.316;10.182;2024-01-16T07:15:40;11.97;;;7.50;;
37477;SDS011;23334;54.316;10.182;2024-01-16T07:18:06;14.80;;;7.93;;
37477;SDS011;23334;54.316;10.182;2024-01-16T07:20:32;12.47;;;7.20;;
37477;SDS011;23334;54.316;10.182;2024-01-16T07:22:58;9.70;;;6.77;;
37477;SDS011;23334;54.316;10.182;2024-01-16T07:25:25;11.83;;;7.60;;
37477;SDS011;23334;54.316;10.182;2024-01-16T07:27:51;13.67;;;7.10;;
37477;SDS011;23334;54.316;10.182;2024-01-16T07:30:17;15.17;;;7.83;;
37477;SDS011;23334;54.316;10.182;2024-01-16T07:32:43;9.63;;;6.30;;
37477;SDS011;23334;54.316;10.182;2024-01-16T07:35:10;12.87;;;7.77;;
37477;SDS011;23334;54.316;10.182;2024-01-16T07:37:36;9.57;;;7.10;;
37477;SDS011;23334;54.316;10.182;2024-01-16T07:40:03;10.73;;;7.03;;
37477;SDS011;23334;54.316;10.182;2024-01-16T07:42:31;10.13;;;6.80;;
37477;SDS011;23334;54.316;10.182;2024-01-16T07:44:59;14.03;;;8.10;;
37477;SDS011;23334;54.316;10.182;2024-01-16T07:47:25;12.00;;;6.90;;
37477;SDS011;23334;54.316;10.182;2024-01-16T07:49:51;11.37;;;7.40;;
37477;SDS011;23334;54.316;10.182;2024-01-16T07:52:17;11.37;;;7.53;;
37477;SDS011;23334;54.316;10.182;2024-01-16T07:54:43;12.40;;;7.37;;
37477;SDS011;23334;54.316;10.182;2024-01-16T07:57:09;15.13;;;6.80;;
37477;SDS011;23334;54.316;10.182;2024-01-16T07:59:35;9.80;;;6.73;;
37477;SDS011;23334;54.316;10.182;2024-01-16T08:02:01;14.60;;;7.23;;
37477;SDS011;23334;54.316;10.182;2024-01-16T08:04:28;9.90;;;7.17;;
37477;SDS011;23334;54.316;10.182;2024-01-16T08:06:54;14.87;;;7.43;;
37477;SDS011;23334;54.316;10.182;2024-01-16T08:09:20;12.60;;;7.53;;
37477;SDS011;23334;54.316;10.182;2024-01-16T08:11:46;14.20;;;8.10;;
37477;SDS011;23334;54.316;10.182;2024-01-16T08:14:12;12.20;;;8.07;;
37477;SDS011;23334;54.316;10.182;2024-01-16T08:16:38;15.30;;;7.40;;
37477;SDS011;23334;54.316;10.182;2024-01-16T08:19:04;11.67;;;7.63;;
37477;SDS011;23334;54.316;10.182;2024-01-16T08:21:32;12.60;;;8.17;;
37477;SDS011;23334;54.316;10.182;2024-01-16T08:23:58;11.17;;;7.53;;
37477;SDS011;23334;54.316;10.182;2024-01-16T08:26:24;12.40;;;8.50;;
37477;SDS011;23334;54.316;10.182;2024-01-16T08:28:50;13.57;;;8.83;;
37477;SDS011;23334;54.316;10.182;2024-01-16T08:31:16;12.70;;;7.50;;
37477;SDS011;23334;54.316;10.182;2024-01-16T08:33:45;13.70;;;7.57;;
37477;SDS011;23334;54.316;10.182;2024-01-16T08:36:12;8.60;;;6.93;;
37477;SDS011;23334;54.316;10.182;2024-01-16T08:38:41;13.00;;;8.23;;
37477;SDS011;23334;54.316;10.182;2024-01-16T08:41:07;11.57;;;8.03;;
37477;SDS011;23334;54.316;10.182;2024-01-16T08:43:33;11.40;;;7.73;;
37477;SDS011;23334;54.316;10.182;2024-01-16T08:46:00;14.33;;;9.10;;
37477;SDS011;23334;54.316;10.182;2024-01-16T08:48:26;14.40;;;8.37;;
37477;SDS011;23334;54.316;10.182;2024-01-16T08:50:52;16.20;;;8.70;;
37477;SDS011;23334;54.316;10.182;2024-01-16T08:53:19;13.57;;;7.77;;
37477;SDS011;23334;54.316;10.182;2024-01-16T08:55:49;10.77;;;7.60;;
37477;SDS011;23334;54.316;10.182;2024-01-16T08:58:15;13.03;;;8.50;;
37477;SDS011;23334;54.316;10.182;2024-01-16T09:00:41;13.63;;;8.30;;
37477;SDS011;23334;54.316;10.182;2024-01-16T09:03:07;11.40;;;7.30;;
37477;SDS011;23334;54.316;10.182;2024-01-16T09:05:33;13.03;;;7.93;;
37477;SDS011;23334;54.316;10.182;2024-01-16T09:08:03;16.73;;;8.80;;
37477;SDS011;23334;54.316;10.182;2024-01-16T09:10:29;13.67;;;8.63;;
37477;SDS011;23334;54.316;10.182;2024-01-16T09:12:55;11.53;;;7.67;;
37477;SDS011;23334;54.316;10.182;2024-01-16T09:15:21;16.53;;;7.80;;
37477;SDS011;23334;54.316;10.182;2024-01-16T09:17:47;12.80;;;8.10;;
37477;SDS011;23334;54.316;10.182;2024-01-16T09:20:13;13.80;;;7.50;;
37477;SDS011;23334;54.316;10.182;2024-01-16T09:22:39;13.70;;;7.87;;
37477;SDS011;23334;54.316;10.182;2024-01-16T09:25:05;14.13;;;7.87;;
37477;SDS011;23334;54.316;10.182;2024-01-16T09:27:31;12.70;;;7.73;;
37477;SDS011;23334;54.316;10.182;2024-01-16T09:29:57;14.30;;;8.10;;
37477;SDS011;23334;54.316;10.182;2024-01-16T09:32:23;12.93;;;7.90;;
37477;SDS011;23334;54.316;10.182;2024-01-16T09:34:48;14.20;;;8.70;;
37477;SDS011;23334;54.316;10.182;2024-01-16T09:37:14;10.40;;;7.13;;
37477;SDS011;23334;54.316;10.182;2024-01-16T09:39:41;11.27;;;8.27;;
37477;SDS011;23334;54.316;10.182;2024-01-16T09:42:07;13.60;;;7.70;;
37477;SDS011;23334;54.316;10.182;2024-01-16T09:44:34;11.47;;;7.97;;
37477;SDS011;23334;54.316;10.182;2024-01-16T09:47:01;16.27;;;7.77;;
37477;SDS011;23334;54.316;10.182;2024-01-16T09:49:30;12.50;;;8.23;;
37477;SDS011;23334;54.316;10.182;2024-01-16T09:51:56;16.30;;;8.63;;
37477;SDS011;23334;54.316;10.182;2024-01-16T09:54:24;10.10;;;6.13;;
37477;SDS011;23334;54.316;10.182;2024-01-16T09:56:51;11.23;;;7.40;;
37477;SDS011;23334;54.316;10.182;2024-01-16T09:59:19;15.10;;;8.03;;
37477;SDS011;23334;54.316;10.182;2024-01-16T10:01:46;14.70;;;7.70;;
37477;SDS011;23334;54.316;10.182;2024-01-16T10:04:13;9.83;;;6.70;;
37477;SDS011;23334;54.316;10.182;2024-01-16T10:06:39;14.20;;;7.93;;
37477;SDS011;23334;54.316;10.182;2024-01-16T10:09:06;12.47;;;7.13;;
37477;SDS011;23334;54.316;10.182;2024-01-16T10:11:33;9.97;;;7.00;;
37477;SDS011;23334;54.316;10.182;2024-01-16T10:13:59;10.20;;;6.93;;
37477;SDS011;23334;54.316;10.182;2024-01-16T10:17:11;18.73;;;7.40;;
37477;SDS011;23334;54.316;10.182;2024-01-16T10:19:12;12.60;;;7.60;;
37477;SDS011;23334;54.316;10.182;2024-01-16T10:21:38;10.00;;;6.60;;
37477;SDS011;23334;54.316;10.182;2024-01-16T10:24:10;11.97;;;7.20;;
37477;SDS011;23334;54.316;10.182;2024-01-16T10:26:36;9.60;;;6.70;;
37477;SDS011;23334;54.316;10.182;2024-01-16T10:29:03;9.67;;;6.53;;
37477;SDS011;23334;54.316;10.182;2024-01-16T10:31:33;7.20;;;5.80;;
37477;SDS011;23334;54.316;10.182;2024-01-16T10:33:59;7.53;;;5.93;;
37477;SDS011;23334;54.316;10.182;2024-01-16T10:36:25;6.30;;;5.10;;
37477;SDS011;23334;54.316;10.182;2024-01-16T10:38:51;7.80;;;6.10;;
37477;SDS011;23334;54.316;10.182;2024-01-16T10:41:22;10.57;;;6.80;;
37477;SDS011;23334;54.316;10.182;2024-01-16T10:44:03;9.47;;;7.33;;
37477;SDS011;23334;54.316;10.182;2024-01-16T10:46:29;10.50;;;7.20;;
37477;SDS011;23334;54.316;10.182;2024-01-16T10:49:00;9.43;;;6.50;;
37477;SDS011;23334;54.316;10.182;2024-01-16T10:51:26;15.17;;;7.87;;
37477;SDS011;23334;54.316;10.182;2024-01-16T10:54:00;6.63;;;5.90;;
37477;SDS011;23334;54.316;10.182;2024-01-16T10:56:27;10.03;;;5.50;;
37477;SDS011;23334;54.316;10.182;2024-01-16T10:58:57;13.90;;;6.30;;
37477;SDS011;23334;54.316;10.182;2024-01-16T11:01:25;8.83;;;6.73;;
37477;SDS011;23334;54.316;10.182;2024-01-16T11:03:52;8.23;;;5.50;;
37477;SDS011;23334;54.316;10.182;2024-01-16T11:06:22;6.43;;;4.60;;
37477;SDS011;23334;54.316;10.182;2024-01-16T11:08:49;8.07;;;4.40;;
37477;SDS011;23334;54.316;10.182;2024-01-16T11:11:16;5.60;;;4.10;;
37477;SDS011;23334;54.316;10.182;2024-01-16T11:13:42;5.30;;;3.40;;
37477;SDS011;23334;54.316;10.182;2024-01-16T11:16:10;4.50;;;3.77;;
37477;SDS011;23334;54.316;10.182;2024-01-16T11:18:36;4.27;;;3.73;;
37477;SDS011;23334;54.316;10.182;2024-01-16T11:21:07;8.10;;;4.27;;
37477;SDS011;23334;54.316;10.182;2024-01-16T11:23:34;5.13;;;3.70;;
37477;SDS011;23334;54.316;10.182;2024-01-16T11:26:00;4.60;;;3.80;;
37477;SDS011;23334;54.316;10.182;2024-01-16T11:28:46;4.13;;;3.77;;
37477;SDS011;23334;54.316;10.182;2024-01-16T11:31:34;5.00;;;4.07;;
37477;SDS011;23334;54.316;10.182;2024-01-16T11:34:01;6.20;;;4.13;;
37477;SDS011;23334;54.316;10.182;2024-01-16T11:36:48;8.60;;;4.53;;
37477;SDS011;23334;54.316;10.182;2024-01-16T11:39:21;10.10;;;3.57;;
37477;SDS011;23334;54.316;10.182;2024-01-16T11:44:35;4.43;;;3.00;;
37477;SDS011;23334;54.316;10.182;2024-01-16T11:47:02;8.80;;;3.80;;
37477;SDS011;23334;54.316;10.182;2024-01-16T11:49:30;3.37;;;3.07;;
37477;SDS011;23334;54.316;10.182;2024-01-16T11:52:04;5.20;;;3.73;;
37477;SDS011;23334;54.316;10.182;2024-01-16T11:54:30;3.10;;;2.80;;
37477;SDS011;23334;54.316;10.182;2024-01-16T11:59:35;3.83;;;2.70;;
37477;SDS011;23334;54.316;10.182;2024-01-16T12:02:09;4.40;;;2.77;;
37477;SDS011;23334;54.316;10.182;2024-01-16T12:04:36;3.30;;;2.13;;
37477;SDS011;23334;54.316;10.182;2024-01-16T12:07:02;10.23;;;2.73;;
37477;SDS011;23334;54.316;10.182;2024-01-16T12:09:30;6.00;;;2.20;;
37477;SDS011;23334;54.316;10.182;2024-01-16T12:11:57;2.70;;;2.50;;
37477;SDS011;23334;54.316;10.182;2024-01-16T12:14:23;3.43;;;2.13;;
37477;SDS011;23334;54.316;10.182;2024-01-16T12:16:49;6.60;;;2.30;;
37477;SDS011;23334;54.316;10.182;2024-01-16T12:19:15;8.70;;;2.60;;
37477;SDS011;23334;54.316;10.182;2024-01-16T12:21:42;3.57;;;2.00;;
37477;SDS011;23334;54.316;10.182;2024-01-16T12:24:10;1.93;;;1.80;;
37477;SDS011;23334;54.316;10.182;2024-01-16T12:26:39;4.60;;;1.93;;
37477;SDS011;23334;54.316;10.182;2024-01-16T12:29:06;1.87;;;1.70;;
37477;SDS011;23334;54.316;10.182;2024-01-16T12:31:32;4.87;;;1.70;;
37477;SDS011;23334;54.316;10.182;2024-01-16T12:34:08;4.03;;;1.17;;
37477;SDS011;23334;54.316;10.182;2024-01-16T12:36:34;1.63;;;1.40;;
37477;SDS011;23334;54.316;10.182;2024-01-16T12:39:00;2.50;;;1.20;;
37477;SDS011;23334;54.316;10.182;2024-01-16T12:41:27;3.43;;;1.40;;
37477;SDS011;23334;54.316;10.182;2024-01-16T12:43:54;3.33;;;1.70;;
37477;SDS011;23334;54.316;10.182;2024-01-16T12:46:20;3.47;;;1.90;;
37477;SDS011;23334;54.316;10.182;2024-01-16T12:48:46;3.00;;;1.60;;
37477;SDS011;23334;54.316;10.182;2024-01-16T12:51:16;2.50;;;1.17;;
37477;SDS011;23334;54.316;10.182;2024-01-16T12:53:46;2.93;;;2.00;;
37477;SDS011;23334;54.316;10.182;2024-01-16T12:56:12;6.30;;;1.73;;
37477;SDS011;23334;54.316;10.182;2024-01-16T12:58:38;1.67;;;1.43;;
37477;SDS011;23334;54.316;10.182;2024-01-16T13:01:21;1.43;;;1.30;;
37477;SDS011;23334;54.316;10.182;2024-01-16T13:03:48;1.87;;;1.07;;
37477;SDS011;23334;54.316;10.182;2024-01-16T13:06:18;2.93;;;1.30;;
37477;SDS011;23334;54.316;10.182;2024-01-16T13:08:45;1.73;;;1.13;;
37477;SDS011;23334;54.316;10.182;2024-01-16T13:11:11;1.20;;;1.10;;
37477;SDS011;23334;54.316;10.182;2024-01-16T13:13:40;1.87;;;0.90;;
37477;SDS011;23334;54.316;10.182;2024-01-16T13:16:07;0.80;;;0.73;;
37477;SDS011;23334;54.316;10.182;2024-01-16T13:18:33;1.20;;;0.90;;
37477;SDS011;23334;54.316;10.182;2024-01-16T13:20:59;2.63;;;1.10;;
37477;SDS011;23334;54.316;10.182;2024-01-16T13:23:26;3.30;;;1.30;;
37477;SDS011;23334;54.316;10.182;2024-01-16T13:25:54;0.90;;;0.90;;
37477;SDS011;23334;54.316;10.182;2024-01-16T13:28:28;2.70;;;1.23;;
37477;SDS011;23334;54.316;10.182;2024-01-16T13:30:54;2.00;;;1.20;;
37477;SDS011;23334;54.316;10.182;2024-01-16T13:33:23;1.70;;;1.07;;
37477;SDS011;23334;54.316;10.182;2024-01-16T13:35:52;1.00;;;0.87;;
37477;SDS011;23334;54.316;10.182;2024-01-16T13:38:19;4.87;;;1.10;;
37477;SDS011;23334;54.316;10.182;2024-01-16T13:40:47;0.93;;;0.87;;
37477;SDS011;23334;54.316;10.182;2024-01-16T13:43:15;2.27;;;1.10;;
37477;SDS011;23334;54.316;10.182;2024-01-16T13:45:41;3.00;;;1.10;;
37477;SDS011;23334;54.316;10.182;2024-01-16T13:48:07;2.60;;;0.60;;
37477;SDS011;23334;54.316;10.182;2024-01-16T13:50:33;3.07;;;1.17;;
37477;SDS011;23334;54.316;10.182;2024-01-16T13:53:02;1.50;;;1.03;;
37477;SDS011;23334;54.316;10.182;2024-01-16T13:55:32;1.20;;;0.97;;
37477;SDS011;23334;54.316;10.182;2024-01-16T13:57:58;3.77;;;0.80;;
37477;SDS011;23334;54.316;10.182;2024-01-16T14:00:24;7.40;;;1.13;;
37477;SDS011;23334;54.316;10.182;2024-01-16T14:02:50;1.97;;;0.97;;
37477;SDS011;23334;54.316;10.182;2024-01-16T14:05:18;1.47;;;0.83;;
37477;SDS011;23334;54.316;10.182;2024-01-16T14:07:45;0.80;;;0.80;;
37477;SDS011;23334;54.316;10.182;2024-01-16T14:10:12;1.07;;;1.07;;
37477;SDS011;23334;54.316;10.182;2024-01-16T14:12:38;1.57;;;1.10;;
37477;SDS011;23334;54.316;10.182;2024-01-16T14:15:07;4.87;;;0.90;;
37477;SDS011;23334;54.316;10.182;2024-01-16T14:17:40;2.67;;;0.77;;
37477;SDS011;23334;54.316;10.182;2024-01-16T14:20:07;1.10;;;0.70;;
37477;SDS011;23334;54.316;10.182;2024-01-16T14:22:37;4.20;;;1.00;;
37477;SDS011;23334;54.316;10.182;2024-01-16T14:25:04;3.63;;;0.70;;
37477;SDS011;23334;54.316;10.182;2024-01-16T14:27:35;1.33;;;1.10;;
37477;SDS011;23334;54.316;10.182;2024-01-16T14:30:01;1.80;;;0.80;;
37477;SDS011;23334;54.316;10.182;2024-01-16T14:32:28;2.97;;;1.13;;
37477;SDS011;23334;54.316;10.182;2024-01-16T14:34:54;2.17;;;1.70;;